Toussaint Louverture International Airport
MTPP : now visible

Airfield :











YOU CAN JOIN US ON...

 
LOGIN :

Register | Disclaimer

   EN    FR    IT 

 









Legend :    VFR   Marginal VFR   IFR   Intensive IFR   Very Intensive IFR
Visi :
Ceiling :
>= 8 km
>= 3000ft
5 to 8 km
1000 to 3000 ft
1500m to 5 km
500 to 1000 ft
800 to 1500m
200 to 500 ft
< 800m
< 200 ft
Symbols :   Thunderstorms  Fog  Heavy snow  Heavy precipitations  Wind > 20 kt






- Airport Elevation : 122 ft
- IATA code : PAP


MTPP - Toussaint Louverture International

CURRENT METAR :
  • 222152Z 30007KT 270V330 9000 FEW025 SCT050 28/20 Q1011 A2988

EXPIRED METARs :
  • 222053Z 30006KT 9999 FEW026 SCT050 29/20 Q1011 A2986
  • 221950Z 31008KT 9999 SCT027 30/21 Q1011 A2985

TAF TAF MTPP
Valid from the 22 at 18:00 until the 23 at 18:00 UTC


221719Z 2218/2318 12007KT 9000 FEW026
TEMPO 2218/2305 28010KT
FM230600 VRB02KT 9000 FEW020
BECMG 2314/2317 10012KT



MET'MAP, your aeronautical weather chart ! - Copyright ORBIFLY December 2007 - Disclaimer

ORBIFLY MET'MAP TEAM :

Programming & Development : Alexandra Zaïnal
Concept & Development : Baudouin d'Aumeries
Co-Development & Prog : Marc-Olivier Méhu
Technical & hardware support : Manuel Goepfert

Contact : metmap@orbifly.com




SOURCES & CREDITS :

   NOAA       Earth
Advisory